Time;durP1;ratioP1;P1;durP2;ratioP2;P2;SDS_P1;SDS_P2;PMS_P1;PMS_P2;Temp;Humidity;BMP_temperature;BMP_pressure;BME280_temperature;BME280_humidity;BME280_pressure;Samples;Min_cycle;Max_cycle;Signal;HPM_P1;HPM_P2
2023/08/25 00:01:15;;;;;;;14.02;12.63;;;;;;;23.36;56.28;95035.09;4976507;28;20422;-80
2023/08/25 00:03:41;;;;;;;14.88;12.77;;;;;;;23.31;56.35;95028.22;5009689;28;20475;-81
2023/08/25 00:06:07;;;;;;;14.10;12.60;;;;;;;23.39;56.05;95041.69;5010436;28;20037;-81
2023/08/25 00:08:33;;;;;;;14.70;12.73;;;;;;;23.35;56.33;95038.41;4992437;28;20058;-82
2023/08/25 00:10:58;;;;;;;17.90;12.57;;;;;;;23.32;56.35;95040.19;5010075;28;20102;-81
2023/08/25 00:13:24;;;;;;;13.70;12.30;;;;;;;23.31;56.33;95039.44;4992297;28;20447;-81
2023/08/25 00:15:50;;;;;;;14.25;12.85;;;;;;;23.27;56.55;95026.97;4991635;28;20136;-80
2023/08/25 00:18:15;;;;;;;14.15;11.98;;;;;;;23.24;56.49;95023.16;4992702;28;20026;-81
2023/08/25 00:20:41;;;;;;;14.48;12.55;;;;;;;23.22;56.68;95020.09;4991764;28;20044;-81
2023/08/25 00:23:07;;;;;;;16.40;13.40;;;;;;;23.23;56.74;95027.25;4976272;28;20060;-82
2023/08/25 00:25:33;;;;;;;14.38;12.20;;;;;;;23.18;56.73;95022.44;4975644;28;20034;-79
2023/08/25 00:27:58;;;;;;;14.18;12.75;;;;;;;23.12;56.79;95026.56;5009830;28;20604;-81
2023/08/25 00:30:24;;;;;;;13.50;12.10;;;;;;;23.08;57.09;95024.00;4991967;28;20053;-80
2023/08/25 00:32:50;;;;;;;13.95;12.55;;;;;;;23.03;57.33;95025.56;4990788;28;20053;-80
2023/08/25 00:35:15;;;;;;;16.00;12.95;;;;;;;23.08;57.48;95031.66;4989579;28;20026;-80
2023/08/25 00:37:41;;;;;;;14.18;12.68;;;;;;;23.08;57.52;95040.06;4974408;28;20022;-81
2023/08/25 00:40:07;;;;;;;14.48;12.77;;;;;;;23.07;57.48;95044.16;4991245;28;20022;-82
2023/08/25 00:42:33;;;;;;;15.77;12.90;;;;;;;23.02;57.79;95035.25;4974115;28;20084;-80
2023/08/25 00:44:58;;;;;;;14.32;12.82;;;;;;;23.04;57.57;95034.72;4991264;28;20065;-80
2023/08/25 00:47:24;;;;;;;15.07;11.77;;;;;;;23.00;57.75;95035.03;4990160;28;20068;-81
2023/08/25 00:49:50;;;;;;;14.25;12.85;;;;;;;22.98;57.73;95034.75;4974654;28;20437;-82
2023/08/25 00:52:16;;;;;;;14.55;13.02;;;;;;;22.96;57.80;95040.13;5008173;28;20084;-82
2023/08/25 00:54:43;;;;;;;15.32;13.55;;;;;;;22.91;57.89;95038.09;4990626;28;20123;-82
2023/08/25 00:57:08;;;;;;;13.77;12.45;;;;;;;22.89;57.90;95040.66;5008408;28;20034;-82
2023/08/25 00:59:34;;;;;;;14.63;13.05;;;;;;;22.84;58.15;95035.81;4990487;28;20026;-82
2023/08/25 01:01:59;;;;;;;14.80;13.15;;;;;;;22.89;57.66;95046.28;4974688;28;20105;-82
2023/08/25 01:04:25;;;;;;;15.27;13.75;;;;;;;22.82;58.21;95046.75;4973639;28;20030;-82
2023/08/25 01:06:51;;;;;;;14.70;13.20;;;;;;;22.78;58.27;95044.25;5008270;28;20408;-82
2023/08/25 01:09:17;;;;;;;15.88;14.00;;;;;;;22.77;58.59;95055.97;5007481;28;20106;-82
2023/08/25 01:12:01;;;;;;;14.35;12.98;;;;;;;22.76;58.50;95043.22;4974395;28;20496;-82
2023/08/25 01:14:47;;;;;;;15.65;13.52;;;;;;;22.70;58.77;95043.25;4990213;28;20117;-81
2023/08/25 01:17:22;;;;;;;15.18;13.63;;;;;;;22.74;58.76;95045.78;5007194;28;20026;-81
2023/08/25 01:19:53;;;;;;;15.32;13.52;;;;;;;22.72;58.83;95053.97;4990685;28;20034;-80
2023/08/25 01:22:30;;;;;;;14.88;13.45;;;;;;;22.70;59.02;95051.66;4989506;28;20594;-82
2023/08/25 01:25:23;;;;;;;14.90;13.30;;;;;;;22.70;58.93;95048.84;4990028;28;20052;-81
2023/08/25 01:27:50;;;;;;;15.00;13.20;;;;;;;22.70;58.77;95040.44;4974091;28;20080;-82
2023/08/25 01:30:15;;;;;;;15.20;13.68;;;;;;;22.63;59.02;95040.97;4989644;28;20029;-80
2023/08/25 01:32:41;;;;;;;15.18;13.57;;;;;;;22.66;59.23;95039.19;4973658;28;20474;-80
2023/08/25 01:35:07;;;;;;;17.33;13.60;;;;;;;22.60;59.13;95035.66;4988807;28;20034;-83
2023/08/25 01:37:38;;;;;;;15.18;13.75;;;;;;;22.57;59.20;95031.84;4973627;28;20392;-82
2023/08/25 01:40:11;;;;;;;14.68;13.18;;;;;;;22.55;59.04;95028.03;4989369;28;20045;-80
2023/08/25 01:42:37;;;;;;;14.77;13.27;;;;;;;22.52;59.00;95024.97;4973297;28;20045;-82
2023/08/25 01:45:05;;;;;;;15.90;13.10;;;;;;;22.47;58.97;95031.34;4973669;28;20034;-81
2023/08/25 01:47:32;;;;;;;14.13;12.63;;;;;;;22.48;58.76;95023.69;4989177;28;20079;-80
2023/08/25 01:49:59;;;;;;;17.83;13.95;;;;;;;22.47;58.50;95017.34;4990062;28;20045;-80
2023/08/25 01:52:25;;;;;;;15.77;13.80;;;;;;;22.45;58.80;95013.53;4988692;28;20184;-82
2023/08/25 01:54:50;;;;;;;15.57;13.63;;;;;;;22.42;59.03;95020.16;4973696;28;20728;-82
2023/08/25 01:57:16;;;;;;;15.52;13.75;;;;;;;22.43;59.03;95018.91;4988975;28;20097;-82
2023/08/25 01:59:41;;;;;;;16.92;14.88;;;;;;;22.44;59.22;95026.00;4989914;28;20029;-82
2023/08/25 02:02:07;;;;;;;18.92;13.80;;;;;;;22.44;59.22;95026.00;4989357;28;20077;-82
2023/08/25 02:04:33;;;;;;;17.27;14.48;;;;;;;22.41;59.37;95018.63;4972697;28;20034;-82
2023/08/25 02:06:58;;;;;;;16.52;13.70;;;;;;;22.36;59.36;95013.81;5007327;28;20034;-81
2023/08/25 02:09:23;;;;;;;17.65;14.02;;;;;;;22.36;59.21;95014.56;5006555;28;20030;-82
2023/08/25 02:11:49;;;;;;;16.08;13.93;;;;;;;22.33;59.53;95015.59;4989584;28;20030;-82
2023/08/25 02:14:15;;;;;;;15.40;13.80;;;;;;;22.38;59.27;95019.66;4988612;28;20419;-82
2023/08/25 02:16:40;;;;;;;14.73;13.23;;;;;;;22.34;59.38;95025.53;4989302;28;20448;-81
2023/08/25 02:19:06;;;;;;;16.15;13.85;;;;;;;22.34;59.73;95038.75;5006471;28;20084;-82
2023/08/25 02:21:32;;;;;;;15.10;13.63;;;;;;;22.32;59.68;95036.47;4989136;28;20456;-82
2023/08/25 02:23:57;;;;;;;16.50;14.70;;;;;;;22.27;59.67;95038.00;4972919;28;20036;-82
2023/08/25 02:26:22;;;;;;;16.20;14.50;;;;;;;22.31;59.83;95036.97;4971968;28;20022;-82
2023/08/25 02:28:48;;;;;;;16.02;13.85;;;;;;;22.28;59.75;95044.38;4973300;28;20026;-82
2023/08/25 02:31:13;;;;;;;16.25;14.23;;;;;;;22.29;59.85;95043.09;4987519;28;20045;-81
2023/08/25 02:33:39;;;;;;;15.82;14.25;;;;;;;22.25;60.03;95042.59;4973068;28;20037;-82
2023/08/25 02:36:04;;;;;;;16.40;14.70;;;;;;;22.23;59.96;95034.69;4988138;28;20029;-81
2023/08/25 02:38:30;;;;;;;15.02;13.43;;;;;;;22.21;60.12;95048.47;4989031;28;20110;-80
2023/08/25 02:40:55;;;;;;;18.70;15.35;;;;;;;22.16;60.09;95038.03;4988620;28;20049;-81
2023/08/25 02:43:20;;;;;;;17.30;14.32;;;;;;;22.19;60.11;95044.63;4988372;28;20041;-81
2023/08/25 02:45:46;;;;;;;17.30;15.32;;;;;;;22.07;60.20;95035.44;4972796;28;20026;-82
2023/08/25 02:48:12;;;;;;;18.00;14.63;;;;;;;22.07;60.08;95038.25;4987810;28;20037;-81
2023/08/25 02:50:37;;;;;;;18.27;14.65;;;;;;;22.08;60.26;95039.00;5006531;28;20037;-82
2023/08/25 02:53:03;;;;;;;17.13;14.95;;;;;;;22.07;60.39;95038.25;4972073;28;20017;-83
2023/08/25 02:55:28;;;;;;;17.50;15.10;;;;;;;22.07;60.50;95045.88;5006185;28;20018;-81
2023/08/25 02:57:54;;;;;;;15.98;14.32;;;;;;;22.04;60.80;95046.94;4972760;28;20026;-81
2023/08/25 03:00:21;;;;;;;16.50;14.10;;;;;;;21.99;60.66;95054.81;4992212;28;20064;-82
2023/08/25 03:02:48;;;;;;;17.63;14.95;;;;;;;21.97;60.56;95054.56;4976525;28;20026;-81
2023/08/25 03:05:14;;;;;;;17.10;15.05;;;;;;;21.94;60.90;95055.56;4991969;28;20030;-82
2023/08/25 03:07:39;;;;;;;17.08;15.25;;;;;;;21.90;60.97;95057.09;5010668;28;20117;-81
2023/08/25 03:10:05;;;;;;;18.00;15.20;;;;;;;21.94;60.70;95057.59;4975614;28;20033;-82
2023/08/25 03:12:31;;;;;;;18.33;14.82;;;;;;;21.93;60.79;95064.47;4976491;28;20562;-81
2023/08/25 03:14:56;;;;;;;17.40;14.85;;;;;;;21.93;61.05;95068.03;4975580;28;20029;-81
2023/08/25 03:17:22;;;;;;;16.65;14.95;;;;;;;21.96;60.88;95063.44;4992251;28;20136;-81
2023/08/25 03:19:48;;;;;;;16.67;14.82;;;;;;;21.93;61.12;95070.06;4976008;28;20101;-81
2023/08/25 03:22:14;;;;;;;16.55;14.63;;;;;;;21.91;60.92;95070.59;4976002;28;20500;-81
2023/08/25 03:24:39;;;;;;;16.60;14.77;;;;;;;21.89;61.11;95070.31;4992195;28;20087;-81
2023/08/25 03:27:05;;;;;;;17.30;14.57;;;;;;;21.80;61.14;95076.19;4991372;28;20034;-81
2023/08/25 03:29:33;;;;;;;16.83;14.20;;;;;;;21.79;61.72;95079.47;4992363;28;20037;-81
2023/08/25 03:31:59;;;;;;;15.43;13.32;;;;;;;21.80;61.64;95083.81;4991328;28;20045;-81
2023/08/25 03:34:25;;;;;;;15.85;14.23;;;;;;;21.84;61.40;95087.88;4975801;28;20026;-82
2023/08/25 03:36:50;;;;;;;17.70;13.43;;;;;;;21.84;61.43;95090.66;4975295;28;20021;-81
2023/08/25 03:39:16;;;;;;;17.85;14.65;;;;;;;21.79;61.61;95088.63;4991830;28;20034;-81
2023/08/25 03:41:41;;;;;;;20.15;14.18;;;;;;;21.78;61.94;95083.53;4992183;28;20119;-80
2023/08/25 03:44:07;;;;;;;15.88;14.27;;;;;;;21.74;62.04;95078.97;4991469;28;20034;-81
2023/08/25 03:46:33;;;;;;;16.52;14.27;;;;;;;21.73;61.91;95083.06;4992165;28;20153;-81
2023/08/25 03:48:58;;;;;;;16.30;14.15;;;;;;;21.70;62.06;95072.09;4991267;28;20042;-80
2023/08/25 03:51:24;;;;;;;14.43;12.98;;;;;;;21.67;62.04;95070.31;4992031;28;20096;-82
2023/08/25 03:53:49;;;;;;;17.52;13.27;;;;;;;21.67;61.97;95075.91;4974852;28;20026;-82
2023/08/25 03:56:15;;;;;;;15.82;13.20;;;;;;;21.67;62.17;95075.91;4975689;28;20053;-83
2023/08/25 03:58:40;;;;;;;17.35;13.93;;;;;;;21.66;62.22;95089.13;4991534;28;20695;-83
2023/08/25 04:01:06;;;;;;;15.05;13.38;;;;;;;21.65;62.33;95084.81;4975160;28;20029;-82
2023/08/25 04:03:31;;;;;;;15.32;13.73;;;;;;;21.69;62.10;95087.34;4991729;28;20026;-82
2023/08/25 04:05:57;;;;;;;18.13;13.93;;;;;;;21.68;62.68;95086.59;4990679;28;20478;-82
2023/08/25 04:08:23;;;;;;;16.20;13.20;;;;;;;21.64;62.38;95091.66;4991776;28;20681;-81
2023/08/25 04:10:48;;;;;;;15.02;13.52;;;;;;;21.65;62.55;95086.84;4974794;28;20088;-81
2023/08/25 04:13:14;;;;;;;15.60;14.00;;;;;;;21.66;62.20;95096.75;4991363;28;20092;-82
2023/08/25 04:15:39;;;;;;;17.75;14.07;;;;;;;21.62;62.45;95085.84;5008496;28;20372;-79
2023/08/25 04:18:05;;;;;;;18.27;14.93;;;;;;;21.60;62.70;95093.94;5009206;28;20026;-81
2023/08/25 04:20:32;;;;;;;18.42;15.10;;;;;;;21.61;62.76;95089.88;4991068;28;20113;-81
2023/08/25 04:22:59;;;;;;;16.60;14.07;;;;;;;21.65;62.83;95092.44;4974420;28;20034;-80
2023/08/25 04:25:25;;;;;;;20.88;14.73;;;;;;;21.64;62.35;95094.47;4991276;28;20033;-82
2023/08/25 04:27:51;;;;;;;19.65;15.75;;;;;;;21.66;62.55;95097.50;4990484;28;20026;-82
2023/08/25 04:30:22;;;;;;;21.65;15.38;;;;;;;21.69;62.60;95095.75;5009197;28;20064;-80
2023/08/25 04:32:48;;;;;;;24.23;15.43;;;;;;;21.71;62.63;95101.59;5007768;28;20397;-81
2023/08/25 04:35:13;;;;;;;19.40;14.82;;;;;;;21.76;62.05;95117.63;4990898;28;20049;-80
2023/08/25 04:37:38;;;;;;;17.67;13.95;;;;;;;21.70;62.22;95114.81;5008034;28;20487;-81
2023/08/25 04:40:04;;;;;;;18.88;14.27;;;;;;;21.73;61.76;95116.63;4974514;28;20121;-81
2023/08/25 04:42:30;;;;;;;17.80;13.85;;;;;;;21.78;61.40;95115.06;4991349;28;20040;-81
2023/08/25 04:44:55;;;;;;;22.58;14.63;;;;;;;21.76;61.41;95126.03;5008215;28;20033;-85
2023/08/25 04:47:21;;;;;;;16.50;13.75;;;;;;;21.71;61.66;95115.59;4975273;28;20030;-82
2023/08/25 04:49:46;;;;;;;17.58;13.88;;;;;;;21.74;61.38;95120.19;4990535;28;20022;-83
2023/08/25 04:52:12;;;;;;;18.90;14.70;;;;;;;21.77;61.48;95118.38;4990887;28;20053;-81
2023/08/25 04:54:37;;;;;;;17.60;13.15;;;;;;;21.80;61.44;95123.75;4973937;28;20385;-83
2023/08/25 04:57:03;;;;;;;19.45;14.00;;;;;;;21.80;61.14;95126.53;4990736;28;20071;-82
2023/08/25 04:59:28;;;;;;;19.15;14.35;;;;;;;21.78;61.16;95126.28;5008473;28;20030;-83
2023/08/25 05:01:54;;;;;;;18.02;14.23;;;;;;;21.78;61.23;95129.06;4973811;28;20026;-79
2023/08/25 05:04:19;;;;;;;21.38;14.25;;;;;;;21.77;61.27;95129.59;4990761;28;20457;-82
2023/08/25 05:06:45;;;;;;;18.75;14.32;;;;;;;21.80;61.57;95134.94;4989004;28;20105;-78
2023/08/25 05:09:10;;;;;;;22.10;15.23;;;;;;;21.83;61.31;95133.16;4991130;28;20040;-82
2023/08/25 05:11:36;;;;;;;16.60;14.05;;;;;;;21.87;61.59;95139.28;4973259;28;20034;-79
2023/08/25 05:14:01;;;;;;;18.30;15.65;;;;;;;21.90;61.21;95141.03;4990430;28;20464;-82
2023/08/25 05:16:27;;;;;;;15.95;13.90;;;;;;;21.92;61.58;95144.88;4973501;28;20032;-81
2023/08/25 05:18:52;;;;;;;19.50;14.50;;;;;;;21.94;61.54;95142.31;4973487;28;20481;-81
2023/08/25 05:21:17;;;;;;;17.10;15.27;;;;;;;21.97;61.20;95151.75;4973752;28;20021;-82
2023/08/25 05:23:47;;;;;;;20.85;15.07;;;;;;;21.95;61.31;95143.09;4989220;28;20457;-81
2023/08/25 05:26:17;;;;;;;21.50;14.88;;;;;;;22.01;61.41;95150.22;4974799;28;20105;-81
2023/08/25 05:28:43;;;;;;;18.45;15.32;;;;;;;22.04;61.41;95156.09;4989539;28;20691;-82
2023/08/25 05:31:08;;;;;;;17.70;15.25;;;;;;;22.10;61.45;95151.28;4973607;28;20404;-82
2023/08/25 05:33:35;;;;;;;17.90;15.68;;;;;;;22.11;61.16;95138.81;4989315;28;20547;-82
2023/08/25 05:36:00;;;;;;;20.05;14.45;;;;;;;22.14;61.08;95146.22;5007556;28;20033;-82
2023/08/25 05:38:25;;;;;;;16.90;15.10;;;;;;;22.20;61.00;95141.38;4973357;28;20022;-83
2023/08/25 05:40:51;;;;;;;18.13;14.52;;;;;;;22.26;61.04;95144.94;4988697;28;20061;-84
2023/08/25 05:43:16;;;;;;;17.13;15.15;;;;;;;22.30;60.98;95141.84;4990765;28;20029;-86
2023/08/25 05:45:42;;;;;;;18.75;15.25;;;;;;;22.30;61.11;95137.03;4989231;28;20113;-84
2023/08/25 05:48:07;;;;;;;16.88;14.30;;;;;;;22.41;60.75;95142.63;4990333;28;20033;-88
2023/08/25 05:50:32;;;;;;;16.38;14.65;;;;;;;22.40;60.79;95126.34;5008081;28;20022;-83
2023/08/25 05:52:58;;;;;;;18.45;14.77;;;;;;;22.46;61.04;95130.66;4973437;28;20061;-81
2023/08/25 05:55:26;;;;;;;20.65;14.95;;;;;;;22.52;60.91;95136.25;4973123;28;20484;-78
2023/08/25 05:57:52;;;;;;;17.55;14.82;;;;;;;22.59;60.83;95138.53;4973085;28;20121;-79
2023/08/25 06:00:17;;;;;;;19.15;15.20;;;;;;;22.58;60.47;95127.84;4974039;28;20113;-80
2023/08/25 06:02:43;;;;;;;17.30;14.75;;;;;;;22.65;60.53;95130.91;4994094;28;20389;-77
2023/08/25 06:05:08;;;;;;;18.25;15.73;;;;;;;22.69;60.49;95128.56;4985015;28;20032;-87
2023/08/25 06:07:34;;;;;;;17.17;15.38;;;;;;;22.73;60.37;95123.47;5003199;28;20093;-86
2023/08/25 06:09:59;;;;;;;17.40;15.52;;;;;;;22.82;60.37;95125.22;4973880;28;20141;-86
2023/08/25 06:12:25;;;;;;;18.77;15.10;;;;;;;22.87;59.99;95127.28;5006950;28;20026;-85
2023/08/25 06:14:52;;;;;;;16.52;14.27;;;;;;;22.95;59.87;95117.09;4974783;28;20128;-88
2023/08/25 06:17:17;;;;;;;17.38;15.57;;;;;;;23.04;59.60;95110.44;4991212;28;20091;-86
2023/08/25 06:19:43;;;;;;;16.58;14.05;;;;;;;23.11;59.44;95107.09;4989693;28;20026;-85
2023/08/25 06:22:10;;;;;;;17.35;15.52;;;;;;;23.13;59.56;95112.94;4990224;28;20030;-81
2023/08/25 06:24:35;;;;;;;20.10;14.43;;;;;;;23.21;59.50;95113.94;4990273;28;20523;-90
2023/08/25 06:27:02;;;;;;;18.45;15.18;;;;;;;23.27;59.33;95122.31;4974801;28;20030;-85
2023/08/25 06:29:27;;;;;;;18.25;14.45;;;;;;;23.32;59.43;95119.50;4990137;28;20026;-87
2023/08/25 06:31:53;;;;;;;19.55;14.48;;;;;;;23.40;59.18;95116.13;5009283;28;20061;-88
2023/08/25 06:34:18;;;;;;;17.38;15.38;;;;;;;23.48;59.30;95114.31;4973883;28;20054;-88
2023/08/25 06:36:44;;;;;;;21.17;14.93;;;;;;;23.55;59.12;95113.75;4991511;28;20030;-86
2023/08/25 06:39:09;;;;;;;21.40;15.60;;;;;;;23.65;58.51;95117.06;4990933;28;20026;-86
2023/08/25 06:41:34;;;;;;;17.95;14.77;;;;;;;23.73;58.61;95120.84;4991188;28;20052;-89
2023/08/25 06:44:00;;;;;;;19.83;15.13;;;;;;;23.80;58.30;95114.69;4991741;28;20088;-88
2023/08/25 06:46:25;;;;;;;19.58;15.35;;;;;;;23.92;57.86;95121.75;4974118;28;20026;-87
2023/08/25 06:48:51;;;;;;;19.17;15.27;;;;;;;23.97;58.15;95131.38;4974774;28;20028;-86
2023/08/25 06:51:17;;;;;;;16.25;14.55;;;;;;;24.05;57.89;95126.75;4973193;28;20065;-85
2023/08/25 06:53:42;;;;;;;16.63;14.65;;;;;;;24.13;57.72;95130.50;4989698;28;20498;-84
2023/08/25 06:56:07;;;;;;;18.02;13.93;;;;;;;24.26;57.56;95124.31;4989308;28;20404;-86
2023/08/25 06:58:33;;;;;;;16.88;13.70;;;;;;;24.28;57.29;95118.91;4989544;28;20076;-82
2023/08/25 07:00:59;;;;;;;15.98;14.38;;;;;;;24.42;57.14;95123.41;4989138;28;20053;-87
2023/08/25 07:03:24;;;;;;;17.00;13.70;;;;;;;24.53;56.78;95128.94;4973580;28;20026;-88
2023/08/25 07:05:55;;;;;;;21.65;13.52;;;;;;;24.60;56.61;95122.75;4990677;28;20034;-87
2023/08/25 07:08:21;;;;;;;17.00;13.93;;;;;;;24.66;56.65;95124.72;4973587;28;20523;-87
2023/08/25 07:10:46;;;;;;;20.15;14.05;;;;;;;24.78;56.21;95121.28;4974538;28;20026;-87
2023/08/25 07:13:11;;;;;;;17.50;14.18;;;;;;;24.83;56.15;95126.09;4973152;28;20152;-84
2023/08/25 07:15:37;;;;;;;15.25;13.75;;;;;;;24.92;55.64;95124.97;5013018;28;20029;-94
2023/08/25 07:18:03;;;;;;;14.88;13.10;;;;;;;24.99;55.48;95124.38;5011997;28;20022;-93
2023/08/25 07:20:29;;;;;;;18.77;12.88;;;;;;;25.08;55.44;95132.50;4995953;28;20026;-92
2023/08/25 07:22:54;;;;;;;14.55;13.10;;;;;;;25.20;55.13;95132.38;4976909;28;20045;-92
2023/08/25 07:25:20;;;;;;;12.98;11.57;;;;;;;25.23;54.37;95117.22;4978361;28;20084;-93
2023/08/25 07:27:45;;;;;;;17.17;12.90;;;;;;;25.39;54.14;95121.91;4993354;28;20041;-90
2023/08/25 07:30:11;;;;;;;14.80;12.52;;;;;;;25.50;53.94;95135.81;4975642;28;20480;-90
2023/08/25 07:32:37;;;;;;;15.05;11.57;;;;;;;25.61;53.57;95132.13;4976464;28;20063;-90
2023/08/25 07:35:04;;;;;;;13.65;12.00;;;;;;;25.68;53.59;95139.94;4990917;28;20108;-88
2023/08/25 07:37:29;;;;;;;12.27;11.07;;;;;;;25.78;53.26;95141.13;4973949;28;20450;-81
2023/08/25 07:39:55;;;;;;;14.25;12.18;;;;;;;25.90;52.88;95138.91;4989421;28;20188;-86
2023/08/25 07:42:21;;;;;;;16.45;12.10;;;;;;;25.97;52.20;95140.34;4989268;28;20030;-88
2023/08/25 07:44:48;;;;;;;12.93;11.57;;;;;;;26.08;51.90;95135.31;4993444;28;20061;-89
2023/08/25 07:47:14;;;;;;;12.77;10.60;;;;;;;26.16;51.35;95133.41;4977597;28;20026;-90
2023/08/25 07:49:39;;;;;;;13.38;10.93;;;;;;;26.26;51.15;95130.16;5011990;28;20029;-87
2023/08/25 07:52:04;;;;;;;14.63;10.70;;;;;;;26.36;50.71;95126.41;5010694;28;20030;-87
2023/08/25 07:54:30;;;;;;;14.55;10.75;;;;;;;26.44;50.84;95132.22;5010721;28;20096;-86
2023/08/25 07:56:55;;;;;;;13.88;9.98;;;;;;;26.57;50.23;95132.25;4976271;28;20018;-85
2023/08/25 07:59:21;;;;;;;13.15;9.90;;;;;;;26.66;48.55;95122.59;4978250;28;20034;-88
2023/08/25 08:01:46;;;;;;;12.00;9.57;;;;;;;26.81;48.08;95133.38;4977747;28;20120;-89
2023/08/25 08:04:12;;;;;;;12.18;8.85;;;;;;;26.89;48.26;95134.25;4994066;28;20554;-91
2023/08/25 08:06:38;;;;;;;11.48;8.63;;;;;;;26.90;48.33;95130.91;4979241;28;20504;-90
2023/08/25 08:09:06;;;;;;;10.43;8.60;;;;;;;27.01;48.08;95129.91;4998793;28;20026;-92
2023/08/25 08:11:32;;;;;;;11.57;9.75;;;;;;;27.10;47.30;95126.69;4996869;28;20411;-85
2023/08/25 08:13:57;;;;;;;9.45;8.45;;;;;;;27.18;46.47;95119.13;4980021;28;20030;-91
2023/08/25 08:16:24;;;;;;;9.55;7.78;;;;;;;27.40;45.46;95115.06;4996517;28;20064;-91
2023/08/25 08:18:50;;;;;;;9.35;7.47;;;;;;;27.51;45.42;95114.06;4978026;28;20030;-92
2023/08/25 08:21:15;;;;;;;8.75;7.72;;;;;;;27.67;44.58;95120.66;4980508;28;20391;-89
2023/08/25 08:23:41;;;;;;;10.82;7.45;;;;;;;27.73;44.32;95115.69;4979729;28;20072;-84
2023/08/25 08:26:06;;;;;;;10.60;6.97;;;;;;;27.77;43.67;95108.41;5010202;28;20406;-91
2023/08/25 08:28:31;;;;;;;10.20;6.70;;;;;;;27.87;42.76;95113.56;4994336;28;20462;-90
2023/08/25 08:31:03;;;;;;;7.82;6.80;;;;;;;27.98;42.38;95107.66;4993096;28;20022;-91
2023/08/25 08:33:28;;;;;;;8.02;5.85;;;;;;;28.04;41.47;95102.66;4993373;28;20032;-93
2023/08/25 08:35:54;;;;;;;10.30;6.50;;;;;;;28.09;41.50;95098.19;4998072;28;20025;-94
2023/08/25 08:38:19;;;;;;;8.63;6.30;;;;;;;28.22;41.44;95103.78;4981100;28;20048;-87
2023/08/25 08:40:44;;;;;;;9.63;6.25;;;;;;;28.39;40.38;95100.56;4998547;28;20018;-86
2023/08/25 08:43:14;;;;;;;8.68;6.97;;;;;;;28.60;40.69;95097.72;4996382;28;20037;-86
2023/08/25 08:45:42;;;;;;;7.95;7.15;;;;;;;28.69;41.05;95103.66;4992942;28;20025;-88
2023/08/25 08:48:08;;;;;;;7.75;6.78;;;;;;;28.86;40.28;95108.13;4975245;28;20052;-87
2023/08/25 08:50:34;;;;;;;10.75;6.28;;;;;;;29.00;39.93;95092.59;4975369;28;20948;-85
2023/08/25 08:53:00;;;;;;;8.32;7.05;;;;;;;29.21;38.69;95089.69;4991554;28;20022;-86
2023/08/25 08:55:27;;;;;;;8.20;6.10;;;;;;;29.36;38.53;95092.59;4975164;28;20128;-86
2023/08/25 08:57:52;;;;;;;7.22;6.25;;;;;;;29.56;37.88;95094.63;4975737;28;20492;-87
2023/08/25 09:00:21;;;;;;;9.75;6.70;;;;;;;29.74;37.75;95087.13;4991974;28;20041;-85
2023/08/25 09:02:51;;;;;;;9.32;6.15;;;;;;;29.96;37.18;95088.50;4992536;28;20477;-84
2023/08/25 09:05:18;;;;;;;6.88;5.45;;;;;;;30.17;36.13;95081.97;4973999;28;20038;-81
2023/08/25 09:07:47;;;;;;;7.88;5.95;;;;;;;30.40;34.76;95074.25;4976322;28;20025;-90
2023/08/25 09:10:12;;;;;;;7.20;5.93;;;;;;;30.55;35.56;95070.66;4976887;28;20451;-90
2023/08/25 09:12:37;;;;;;;7.18;5.80;;;;;;;30.79;34.96;95072.19;4975142;28;20029;-83
2023/08/25 09:15:07;;;;;;;9.32;5.80;;;;;;;31.04;34.99;95063.84;4990555;28;20037;-85
2023/08/25 09:17:34;;;;;;;7.45;5.25;;;;;;;31.20;34.58;95068.16;4974184;28;20033;-83
2023/08/25 09:20:07;;;;;;;7.22;5.40;;;;;;;31.43;33.74;95070.94;4975128;28;20033;-87
2023/08/25 09:22:34;;;;;;;6.65;5.15;;;;;;;31.66;33.31;95063.09;4990677;28;20037;-83
2023/08/25 09:25:00;;;;;;;5.53;4.95;;;;;;;31.83;32.04;95071.00;4991116;28;20087;-82
2023/08/25 09:27:26;;;;;;;7.18;5.57;;;;;;;31.98;31.74;95062.38;4973587;28;20022;-83
2023/08/25 09:30:04;;;;;;;8.38;4.97;;;;;;;32.17;31.42;95066.78;4990573;28;20100;-89
2023/08/25 09:32:30;;;;;;;5.35;4.38;;;;;;;32.39;30.38;95059.47;4992378;28;20415;-89
2023/08/25 09:35:09;;;;;;;4.93;4.35;;;;;;;32.60;30.01;95054.19;4975997;28;20128;-89
2023/08/25 09:37:41;;;;;;;6.32;4.72;;;;;;;32.84;29.59;95055.47;4991285;28;20026;-86
2023/08/25 09:40:19;;;;;;;7.05;4.70;;;;;;;32.97;29.44;95051.59;4989870;28;20022;-84
2023/08/25 09:42:45;;;;;;;6.68;5.75;;;;;;;33.16;29.51;95051.78;5004334;28;20099;-85
2023/08/25 09:45:11;;;;;;;8.20;4.75;;;;;;;33.35;29.53;95045.50;4989413;28;20045;-83
2023/08/25 09:47:38;;;;;;;8.45;5.00;;;;;;;33.55;28.48;95047.19;4972734;28;20404;-83
2023/08/25 09:50:04;;;;;;;7.78;5.22;;;;;;;33.81;28.54;95040.00;4990104;28;20030;-83
2023/08/25 09:52:36;;;;;;;5.90;4.60;;;;;;;33.94;29.13;95038.16;4972757;28;20065;-83
2023/08/25 09:55:01;;;;;;;6.40;3.45;;;;;;;34.11;26.01;95040.19;4973791;28;20121;-77
2023/08/25 09:57:27;;;;;;;3.80;3.25;;;;;;;34.24;24.97;95020.59;4988710;28;20105;-79
2023/08/25 09:59:53;;;;;;;5.10;3.58;;;;;;;34.41;25.63;95028.34;4989562;28;20034;-78
2023/08/25 10:02:19;;;;;;;7.93;4.28;;;;;;;34.66;26.46;95015.97;4973010;28;20029;-87
2023/08/25 10:04:45;;;;;;;4.85;3.90;;;;;;;34.84;26.16;95017.34;4990129;28;20427;-87
2023/08/25 10:07:10;;;;;;;4.93;4.43;;;;;;;34.92;26.93;95009.38;4973347;28;20125;-85
2023/08/25 10:09:36;;;;;;;7.15;4.50;;;;;;;35.18;27.26;95004.19;4973232;28;20026;-87
2023/08/25 10:12:04;;;;;;;12.95;5.03;;;;;;;35.34;26.85;95011.09;4992718;28;20369;-86
2023/08/25 10:14:30;;;;;;;7.05;4.03;;;;;;;35.53;26.48;95002.53;4989100;28;20056;-81
2023/08/25 10:17:00;;;;;;;5.50;3.78;;;;;;;35.64;25.19;94995.44;4989715;28;20022;-83
2023/08/25 10:19:28;;;;;;;7.22;4.40;;;;;;;35.70;25.21;95003.72;4972835;28;20049;-82
2023/08/25 10:21:55;;;;;;;4.72;3.97;;;;;;;35.74;25.77;94999.06;4974851;28;20026;-82
2023/08/25 10:24:22;;;;;;;7.53;4.00;;;;;;;35.89;25.08;95001.56;4974437;28;20091;-82
2023/08/25 10:26:49;;;;;;;4.88;3.75;;;;;;;36.01;23.94;95004.56;4973205;28;20671;-81
2023/08/25 10:29:17;;;;;;;4.88;3.75;;;;;;;36.14;23.73;95001.22;4973734;28;20368;-78
2023/08/25 10:31:51;;;;;;;6.20;3.72;;;;;;;36.36;24.49;94998.41;4988279;28;20038;-77
2023/08/25 10:34:43;;;;;;;7.32;3.47;;;;;;;36.66;23.41;94994.81;4973468;28;20699;-82
2023/08/25 10:37:13;;;;;;;7.57;4.53;;;;;;;36.92;23.33;94998.75;4972295;28;20200;-82
2023/08/25 10:39:45;;;;;;;5.28;3.50;;;;;;;37.04;22.47;94992.34;4972185;28;20034;-82
2023/08/25 10:42:11;;;;;;;6.72;3.20;;;;;;;37.21;21.65;94987.06;5007371;28;20026;-82
2023/08/25 10:44:42;;;;;;;4.75;3.47;;;;;;;37.42;21.59;94994.91;4971459;28;20030;-83
2023/08/25 10:47:08;;;;;;;5.45;3.47;;;;;;;37.53;21.29;94989.84;4973194;28;20117;-82
2023/08/25 10:49:38;;;;;;;6.47;3.30;;;;;;;37.63;20.49;94985.53;4987839;28;20121;-82
2023/08/25 10:52:16;;;;;;;5.53;3.20;;;;;;;37.85;20.52;94994.06;4972578;28;20030;-81
2023/08/25 10:54:44;;;;;;;3.65;2.97;;;;;;;38.05;20.41;94989.63;4971588;28;20033;-82
2023/08/25 10:57:26;;;;;;;5.03;3.10;;;;;;;38.29;20.53;94990.44;4972071;28;20026;-82
2023/08/25 10:59:55;;;;;;;5.43;3.30;;;;;;;38.52;19.86;94986.81;4988696;28;20440;-82
2023/08/25 11:02:37;;;;;;;4.78;3.40;;;;;;;38.74;20.12;94976.72;4988124;28;20040;-82
2023/08/25 11:05:21;;;;;;;;;;;;;;;39.09;19.67;94980.88;4988991;28;20033;-83
2023/08/25 11:07:47;;;;;;;6.15;3.10;;;;;;;39.56;18.58;94969.97;5006137;28;20199;-82
2023/08/25 11:10:14;;;;;;;3.70;3.08;;;;;;;40.05;18.45;94961.25;4971822;28;20029;-84
2023/08/25 11:12:40;;;;;;;7.18;3.35;;;;;;;40.40;17.89;94968.88;4972163;28;20022;-82
2023/08/25 11:15:09;;;;;;;5.70;3.38;;;;;;;40.73;17.36;94969.22;4971482;28;20033;-82
2023/08/25 11:17:35;;;;;;;5.07;2.70;;;;;;;41.13;17.17;94964.81;4972557;28;20025;-83
2023/08/25 11:20:01;;;;;;;5.75;3.10;;;;;;;41.65;16.56;94965.22;4973647;28;20068;-82